sensor_id;sensor_type;location;lat;lon;timestamp;P1;durP1;ratioP1;P2;durP2;ratioP2
80573;SDS011;69929;52.390;13.078;2023-05-07T00:02:07;25.38;;;15.55;;
80573;SDS011;69929;52.390;13.078;2023-05-07T00:04:33;21.90;;;15.18;;
80573;SDS011;69929;52.390;13.078;2023-05-07T00:07:02;21.10;;;14.68;;
80573;SDS011;69929;52.390;13.078;2023-05-07T00:09:27;24.83;;;15.18;;
80573;SDS011;69929;52.390;13.078;2023-05-07T00:11:53;23.40;;;14.57;;
80573;SDS011;69929;52.390;13.078;2023-05-07T00:14:19;27.98;;;15.60;;
80573;SDS011;69929;52.390;13.078;2023-05-07T00:16:44;31.95;;;18.27;;
80573;SDS011;69929;52.390;13.078;2023-05-07T00:19:09;47.15;;;30.88;;
80573;SDS011;69929;52.390;13.078;2023-05-07T00:21:35;27.23;;;17.00;;
80573;SDS011;69929;52.390;13.078;2023-05-07T00:24:00;22.40;;;14.48;;
80573;SDS011;69929;52.390;13.078;2023-05-07T00:26:26;21.00;;;13.25;;
80573;SDS011;69929;52.390;13.078;2023-05-07T00:28:51;19.58;;;14.05;;
80573;SDS011;69929;52.390;13.078;2023-05-07T00:31:16;19.50;;;13.20;;
80573;SDS011;69929;52.390;13.078;2023-05-07T00:33:42;21.20;;;13.10;;
80573;SDS011;69929;52.390;13.078;2023-05-07T00:36:07;23.08;;;13.38;;
80573;SDS011;69929;52.390;13.078;2023-05-07T00:38:33;18.38;;;13.32;;
80573;SDS011;69929;52.390;13.078;2023-05-07T00:40:58;22.65;;;13.85;;
80573;SDS011;69929;52.390;13.078;2023-05-07T00:43:24;25.35;;;12.27;;
80573;SDS011;69929;52.390;13.078;2023-05-07T00:45:49;18.45;;;12.73;;
80573;SDS011;69929;52.390;13.078;2023-05-07T00:48:15;24.58;;;13.85;;
80573;SDS011;69929;52.390;13.078;2023-05-07T00:50:41;17.20;;;12.82;;
80573;SDS011;69929;52.390;13.078;2023-05-07T00:53:06;20.75;;;12.57;;
80573;SDS011;69929;52.390;13.078;2023-05-07T00:55:32;17.20;;;11.57;;
80573;SDS011;69929;52.390;13.078;2023-05-07T00:57:58;19.02;;;12.75;;
80573;SDS011;69929;52.390;13.078;2023-05-07T01:00:23;21.92;;;13.02;;
80573;SDS011;69929;52.390;13.078;2023-05-07T01:02:50;16.30;;;11.85;;
80573;SDS011;69929;52.390;13.078;2023-05-07T01:05:15;15.82;;;11.70;;
80573;SDS011;69929;52.390;13.078;2023-05-07T01:07:42;19.88;;;13.13;;
80573;SDS011;69929;52.390;13.078;2023-05-07T01:10:08;24.90;;;13.07;;
80573;SDS011;69929;52.390;13.078;2023-05-07T01:12:35;18.58;;;11.48;;
80573;SDS011;69929;52.390;13.078;2023-05-07T01:15:02;23.05;;;14.05;;
80573;SDS011;69929;52.390;13.078;2023-05-07T01:17:28;19.55;;;12.60;;
80573;SDS011;69929;52.390;13.078;2023-05-07T01:19:54;16.42;;;12.20;;
80573;SDS011;69929;52.390;13.078;2023-05-07T01:22:29;19.25;;;12.68;;
80573;SDS011;69929;52.390;13.078;2023-05-07T01:24:59;17.45;;;12.07;;
80573;SDS011;69929;52.390;13.078;2023-05-07T01:27:26;20.98;;;12.77;;
80573;SDS011;69929;52.390;13.078;2023-05-07T01:29:52;15.75;;;11.07;;
80573;SDS011;69929;52.390;13.078;2023-05-07T01:32:19;18.52;;;12.60;;
80573;SDS011;69929;52.390;13.078;2023-05-07T01:34:52;16.45;;;11.52;;
80573;SDS011;69929;52.390;13.078;2023-05-07T01:37:19;19.63;;;11.60;;
80573;SDS011;69929;52.390;13.078;2023-05-07T01:39:45;18.25;;;11.63;;
80573;SDS011;69929;52.390;13.078;2023-05-07T01:42:12;19.77;;;13.20;;
80573;SDS011;69929;52.390;13.078;2023-05-07T01:44:38;16.48;;;10.95;;
80573;SDS011;69929;52.390;13.078;2023-05-07T01:47:04;19.80;;;12.10;;
80573;SDS011;69929;52.390;13.078;2023-05-07T01:49:29;19.27;;;11.93;;
80573;SDS011;69929;52.390;13.078;2023-05-07T01:51:55;17.02;;;11.23;;
80573;SDS011;69929;52.390;13.078;2023-05-07T01:54:24;15.52;;;10.82;;
80573;SDS011;69929;52.390;13.078;2023-05-07T01:56:52;16.38;;;10.88;;
80573;SDS011;69929;52.390;13.078;2023-05-07T01:59:18;15.70;;;10.07;;
80573;SDS011;69929;52.390;13.078;2023-05-07T02:01:43;19.35;;;11.02;;
80573;SDS011;69929;52.390;13.078;2023-05-07T02:04:09;18.67;;;11.63;;
80573;SDS011;69929;52.390;13.078;2023-05-07T02:06:34;18.02;;;10.30;;
80573;SDS011;69929;52.390;13.078;2023-05-07T02:09:00;15.05;;;10.75;;
80573;SDS011;69929;52.390;13.078;2023-05-07T02:11:25;12.20;;;9.52;;
80573;SDS011;69929;52.390;13.078;2023-05-07T02:13:50;17.55;;;11.68;;
80573;SDS011;69929;52.390;13.078;2023-05-07T02:16:16;15.13;;;10.32;;
80573;SDS011;69929;52.390;13.078;2023-05-07T02:18:41;17.80;;;10.82;;
80573;SDS011;69929;52.390;13.078;2023-05-07T02:21:06;11.73;;;9.27;;
80573;SDS011;69929;52.390;13.078;2023-05-07T02:23:32;13.50;;;10.68;;
80573;SDS011;69929;52.390;13.078;2023-05-07T02:25:57;16.55;;;9.75;;
80573;SDS011;69929;52.390;13.078;2023-05-07T02:28:23;16.27;;;10.15;;
80573;SDS011;69929;52.390;13.078;2023-05-07T02:30:48;15.05;;;9.23;;
80573;SDS011;69929;52.390;13.078;2023-05-07T02:33:14;14.32;;;10.18;;
80573;SDS011;69929;52.390;13.078;2023-05-07T02:35:39;20.75;;;9.85;;
80573;SDS011;69929;52.390;13.078;2023-05-07T02:38:05;13.68;;;9.80;;
80573;SDS011;69929;52.390;13.078;2023-05-07T02:40:30;18.73;;;9.70;;
80573;SDS011;69929;52.390;13.078;2023-05-07T02:42:58;14.02;;;9.63;;
80573;SDS011;69929;52.390;13.078;2023-05-07T02:45:24;16.05;;;9.93;;
80573;SDS011;69929;52.390;13.078;2023-05-07T02:47:49;14.80;;;9.65;;
80573;SDS011;69929;52.390;13.078;2023-05-07T02:50:15;14.75;;;9.35;;
80573;SDS011;69929;52.390;13.078;2023-05-07T02:52:40;13.55;;;9.73;;
80573;SDS011;69929;52.390;13.078;2023-05-07T02:55:06;12.25;;;8.70;;
80573;SDS011;69929;52.390;13.078;2023-05-07T02:57:31;13.70;;;9.63;;
80573;SDS011;69929;52.390;13.078;2023-05-07T02:59:57;13.38;;;9.55;;
80573;SDS011;69929;52.390;13.078;2023-05-07T03:02:23;12.85;;;8.68;;
80573;SDS011;69929;52.390;13.078;2023-05-07T03:04:48;13.70;;;9.35;;
80573;SDS011;69929;52.390;13.078;2023-05-07T03:07:14;11.82;;;9.18;;
80573;SDS011;69929;52.390;13.078;2023-05-07T03:09:39;11.43;;;8.63;;
80573;SDS011;69929;52.390;13.078;2023-05-07T03:12:04;12.43;;;9.00;;
80573;SDS011;69929;52.390;13.078;2023-05-07T03:14:30;11.95;;;8.38;;
80573;SDS011;69929;52.390;13.078;2023-05-07T03:16:55;13.50;;;9.38;;
80573;SDS011;69929;52.390;13.078;2023-05-07T03:19:21;12.57;;;9.77;;
80573;SDS011;69929;52.390;13.078;2023-05-07T03:21:46;14.02;;;10.27;;
80573;SDS011;69929;52.390;13.078;2023-05-07T03:24:12;15.43;;;9.82;;
80573;SDS011;69929;52.390;13.078;2023-05-07T03:26:37;15.55;;;9.45;;
80573;SDS011;69929;52.390;13.078;2023-05-07T03:29:03;17.65;;;9.27;;
80573;SDS011;69929;52.390;13.078;2023-05-07T03:31:28;14.85;;;9.85;;
80573;SDS011;69929;52.390;13.078;2023-05-07T03:33:54;14.30;;;9.25;;
80573;SDS011;69929;52.390;13.078;2023-05-07T03:36:21;16.55;;;10.10;;
80573;SDS011;69929;52.390;13.078;2023-05-07T03:38:47;14.45;;;10.00;;
80573;SDS011;69929;52.390;13.078;2023-05-07T03:41:13;15.98;;;9.90;;
80573;SDS011;69929;52.390;13.078;2023-05-07T03:43:38;14.23;;;9.52;;
80573;SDS011;69929;52.390;13.078;2023-05-07T03:46:04;15.70;;;10.20;;
80573;SDS011;69929;52.390;13.078;2023-05-07T03:48:29;13.85;;;10.25;;
80573;SDS011;69929;52.390;13.078;2023-05-07T03:50:55;15.68;;;10.73;;
80573;SDS011;69929;52.390;13.078;2023-05-07T03:53:22;13.25;;;8.93;;
80573;SDS011;69929;52.390;13.078;2023-05-07T03:55:47;13.88;;;8.98;;
80573;SDS011;69929;52.390;13.078;2023-05-07T03:58:12;13.45;;;9.60;;
80573;SDS011;69929;52.390;13.078;2023-05-07T04:00:38;14.35;;;9.73;;
80573;SDS011;69929;52.390;13.078;2023-05-07T04:03:04;15.85;;;9.88;;
80573;SDS011;69929;52.390;13.078;2023-05-07T04:05:30;15.07;;;9.73;;
80573;SDS011;69929;52.390;13.078;2023-05-07T04:07:57;14.25;;;9.63;;
80573;SDS011;69929;52.390;13.078;2023-05-07T04:10:23;13.93;;;9.27;;
80573;SDS011;69929;52.390;13.078;2023-05-07T04:12:49;14.25;;;9.68;;
80573;SDS011;69929;52.390;13.078;2023-05-07T04:15:14;14.65;;;9.65;;
80573;SDS011;69929;52.390;13.078;2023-05-07T04:17:40;13.55;;;10.10;;
80573;SDS011;69929;52.390;13.078;2023-05-07T04:20:08;16.75;;;10.63;;
80573;SDS011;69929;52.390;13.078;2023-05-07T04:22:34;13.23;;;9.93;;
80573;SDS011;69929;52.390;13.078;2023-05-07T04:24:59;14.05;;;10.20;;
80573;SDS011;69929;52.390;13.078;2023-05-07T04:27:25;18.45;;;10.02;;
80573;SDS011;69929;52.390;13.078;2023-05-07T04:29:51;13.63;;;9.75;;
80573;SDS011;69929;52.390;13.078;2023-05-07T04:32:16;16.75;;;10.13;;
80573;SDS011;69929;52.390;13.078;2023-05-07T04:34:42;10.82;;;8.27;;
80573;SDS011;69929;52.390;13.078;2023-05-07T04:37:08;16.88;;;9.15;;
80573;SDS011;69929;52.390;13.078;2023-05-07T04:39:33;13.80;;;9.63;;
80573;SDS011;69929;52.390;13.078;2023-05-07T04:42:00;12.35;;;9.57;;
80573;SDS011;69929;52.390;13.078;2023-05-07T04:44:25;15.52;;;10.93;;
80573;SDS011;69929;52.390;13.078;2023-05-07T04:46:51;16.65;;;10.90;;
80573;SDS011;69929;52.390;13.078;2023-05-07T04:49:16;15.57;;;9.68;;
80573;SDS011;69929;52.390;13.078;2023-05-07T04:51:41;15.50;;;10.73;;
80573;SDS011;69929;52.390;13.078;2023-05-07T04:54:08;12.40;;;9.77;;
80573;SDS011;69929;52.390;13.078;2023-05-07T04:56:33;14.25;;;9.13;;
80573;SDS011;69929;52.390;13.078;2023-05-07T04:58:58;14.90;;;9.63;;
80573;SDS011;69929;52.390;13.078;2023-05-07T05:01:24;14.98;;;9.13;;
80573;SDS011;69929;52.390;13.078;2023-05-07T05:03:50;15.27;;;9.80;;
80573;SDS011;69929;52.390;13.078;2023-05-07T05:06:15;13.00;;;8.40;;
80573;SDS011;69929;52.390;13.078;2023-05-07T05:08:40;14.43;;;8.93;;
80573;SDS011;69929;52.390;13.078;2023-05-07T05:11:06;19.05;;;9.93;;
80573;SDS011;69929;52.390;13.078;2023-05-07T05:13:31;12.00;;;9.07;;
80573;SDS011;69929;52.390;13.078;2023-05-07T05:15:56;12.95;;;9.10;;
80573;SDS011;69929;52.390;13.078;2023-05-07T05:18:22;12.05;;;8.75;;
80573;SDS011;69929;52.390;13.078;2023-05-07T05:20:47;14.18;;;9.25;;
80573;SDS011;69929;52.390;13.078;2023-05-07T05:23:13;14.27;;;9.07;;
80573;SDS011;69929;52.390;13.078;2023-05-07T05:25:38;13.23;;;9.60;;
80573;SDS011;69929;52.390;13.078;2023-05-07T05:28:05;13.80;;;8.15;;
80573;SDS011;69929;52.390;13.078;2023-05-07T05:30:30;11.10;;;8.00;;
80573;SDS011;69929;52.390;13.078;2023-05-07T05:32:55;13.02;;;8.65;;
80573;SDS011;69929;52.390;13.078;2023-05-07T05:35:21;12.57;;;7.93;;
80573;SDS011;69929;52.390;13.078;2023-05-07T05:37:46;13.52;;;8.63;;
80573;SDS011;69929;52.390;13.078;2023-05-07T05:40:13;14.75;;;8.45;;
80573;SDS011;69929;52.390;13.078;2023-05-07T05:42:38;12.57;;;8.00;;
80573;SDS011;69929;52.390;13.078;2023-05-07T05:45:04;14.38;;;9.02;;
80573;SDS011;69929;52.390;13.078;2023-05-07T05:47:29;17.52;;;8.95;;
80573;SDS011;69929;52.390;13.078;2023-05-07T05:49:55;18.40;;;8.23;;
80573;SDS011;69929;52.390;13.078;2023-05-07T05:52:20;13.27;;;8.70;;
80573;SDS011;69929;52.390;13.078;2023-05-07T05:54:48;13.05;;;8.82;;
80573;SDS011;69929;52.390;13.078;2023-05-07T05:57:14;12.50;;;7.95;;
80573;SDS011;69929;52.390;13.078;2023-05-07T05:59:39;12.40;;;8.52;;
80573;SDS011;69929;52.390;13.078;2023-05-07T06:02:05;10.75;;;8.02;;
80573;SDS011;69929;52.390;13.078;2023-05-07T06:04:31;13.15;;;8.10;;
80573;SDS011;69929;52.390;13.078;2023-05-07T06:06:56;14.55;;;8.98;;
80573;SDS011;69929;52.390;13.078;2023-05-07T06:09:22;9.23;;;7.35;;
80573;SDS011;69929;52.390;13.078;2023-05-07T06:11:47;13.07;;;6.93;;
80573;SDS011;69929;52.390;13.078;2023-05-07T06:14:13;14.80;;;8.43;;
80573;SDS011;69929;52.390;13.078;2023-05-07T06:16:38;15.93;;;8.15;;
80573;SDS011;69929;52.390;13.078;2023-05-07T06:19:04;10.32;;;7.22;;
80573;SDS011;69929;52.390;13.078;2023-05-07T06:21:29;10.02;;;7.18;;
80573;SDS011;69929;52.390;13.078;2023-05-07T06:23:55;9.32;;;6.78;;
80573;SDS011;69929;52.390;13.078;2023-05-07T06:26:20;9.32;;;6.60;;
80573;SDS011;69929;52.390;13.078;2023-05-07T06:28:46;10.20;;;7.13;;
80573;SDS011;69929;52.390;13.078;2023-05-07T06:31:12;9.40;;;6.60;;
80573;SDS011;69929;52.390;13.078;2023-05-07T06:33:38;9.57;;;6.43;;
80573;SDS011;69929;52.390;13.078;2023-05-07T06:36:04;10.18;;;6.50;;
80573;SDS011;69929;52.390;13.078;2023-05-07T06:38:30;9.50;;;6.10;;
80573;SDS011;69929;52.390;13.078;2023-05-07T06:40:55;12.15;;;6.68;;
80573;SDS011;69929;52.390;13.078;2023-05-07T06:43:22;14.98;;;6.80;;
80573;SDS011;69929;52.390;13.078;2023-05-07T06:45:48;10.60;;;6.47;;
80573;SDS011;69929;52.390;13.078;2023-05-07T06:48:13;9.38;;;6.30;;
80573;SDS011;69929;52.390;13.078;2023-05-07T06:50:39;8.02;;;5.57;;
80573;SDS011;69929;52.390;13.078;2023-05-07T06:53:04;6.97;;;5.72;;
80573;SDS011;69929;52.390;13.078;2023-05-07T06:55:30;11.60;;;6.03;;
80573;SDS011;69929;52.390;13.078;2023-05-07T06:57:55;11.00;;;6.20;;
80573;SDS011;69929;52.390;13.078;2023-05-07T07:00:23;9.60;;;6.25;;
80573;SDS011;69929;52.390;13.078;2023-05-07T07:02:48;8.82;;;5.90;;
80573;SDS011;69929;52.390;13.078;2023-05-07T07:05:13;8.57;;;5.93;;
80573;SDS011;69929;52.390;13.078;2023-05-07T07:07:39;6.15;;;4.90;;
80573;SDS011;69929;52.390;13.078;2023-05-07T07:10:04;7.72;;;5.38;;
80573;SDS011;69929;52.390;13.078;2023-05-07T07:12:30;6.15;;;5.05;;
80573;SDS011;69929;52.390;13.078;2023-05-07T07:14:55;8.20;;;5.55;;
80573;SDS011;69929;52.390;13.078;2023-05-07T07:17:21;6.82;;;5.05;;
80573;SDS011;69929;52.390;13.078;2023-05-07T07:19:46;5.93;;;4.57;;
80573;SDS011;69929;52.390;13.078;2023-05-07T07:22:12;9.23;;;4.88;;
80573;SDS011;69929;52.390;13.078;2023-05-07T07:24:37;8.98;;;4.60;;
80573;SDS011;69929;52.390;13.078;2023-05-07T07:27:02;8.15;;;4.65;;
80573;SDS011;69929;52.390;13.078;2023-05-07T07:29:28;6.78;;;4.40;;
80573;SDS011;69929;52.390;13.078;2023-05-07T07:31:53;6.80;;;4.38;;
80573;SDS011;69929;52.390;13.078;2023-05-07T07:34:18;11.20;;;4.88;;
80573;SDS011;69929;52.390;13.078;2023-05-07T07:36:44;10.32;;;5.68;;
80573;SDS011;69929;52.390;13.078;2023-05-07T07:39:09;5.85;;;5.03;;
80573;SDS011;69929;52.390;13.078;2023-05-07T07:41:35;6.88;;;4.75;;
80573;SDS011;69929;52.390;13.078;2023-05-07T07:44:00;8.32;;;5.50;;
80573;SDS011;69929;52.390;13.078;2023-05-07T07:46:26;5.00;;;4.50;;
80573;SDS011;69929;52.390;13.078;2023-05-07T07:48:51;8.82;;;4.72;;
80573;SDS011;69929;52.390;13.078;2023-05-07T07:51:17;8.32;;;4.75;;
80573;SDS011;69929;52.390;13.078;2023-05-07T07:53:42;8.18;;;4.90;;
80573;SDS011;69929;52.390;13.078;2023-05-07T07:56:08;7.00;;;4.75;;
80573;SDS011;69929;52.390;13.078;2023-05-07T07:58:33;7.50;;;4.57;;
80573;SDS011;69929;52.390;13.078;2023-05-07T08:01:00;7.85;;;4.68;;
80573;SDS011;69929;52.390;13.078;2023-05-07T08:03:26;7.60;;;4.68;;
80573;SDS011;69929;52.390;13.078;2023-05-07T08:05:51;10.85;;;5.53;;
80573;SDS011;69929;52.390;13.078;2023-05-07T08:08:16;13.98;;;5.55;;
80573;SDS011;69929;52.390;13.078;2023-05-07T08:10:42;9.77;;;5.47;;
80573;SDS011;69929;52.390;13.078;2023-05-07T08:13:07;9.63;;;5.03;;
80573;SDS011;69929;52.390;13.078;2023-05-07T08:15:33;11.05;;;5.13;;
80573;SDS011;69929;52.390;13.078;2023-05-07T08:17:58;8.05;;;5.18;;
80573;SDS011;69929;52.390;13.078;2023-05-07T08:20:25;7.88;;;4.70;;
80573;SDS011;69929;52.390;13.078;2023-05-07T08:22:51;9.40;;;4.45;;
80573;SDS011;69929;52.390;13.078;2023-05-07T08:25:16;6.32;;;4.07;;
80573;SDS011;69929;52.390;13.078;2023-05-07T08:27:42;5.70;;;4.65;;
80573;SDS011;69929;52.390;13.078;2023-05-07T08:30:07;7.45;;;4.10;;
80573;SDS011;69929;52.390;13.078;2023-05-07T08:32:33;6.38;;;4.20;;
80573;SDS011;69929;52.390;13.078;2023-05-07T08:34:59;5.47;;;3.90;;
80573;SDS011;69929;52.390;13.078;2023-05-07T08:37:24;7.75;;;4.80;;
80573;SDS011;69929;52.390;13.078;2023-05-07T08:39:50;5.03;;;3.70;;
80573;SDS011;69929;52.390;13.078;2023-05-07T08:42:16;5.55;;;4.28;;
80573;SDS011;69929;52.390;13.078;2023-05-07T08:44:43;7.15;;;4.32;;
80573;SDS011;69929;52.390;13.078;2023-05-07T08:47:11;6.60;;;4.30;;
80573;SDS011;69929;52.390;13.078;2023-05-07T08:49:37;7.32;;;3.88;;
80573;SDS011;69929;52.390;13.078;2023-05-07T08:52:03;6.82;;;4.47;;
80573;SDS011;69929;52.390;13.078;2023-05-07T08:54:28;7.78;;;3.75;;
80573;SDS011;69929;52.390;13.078;2023-05-07T08:56:54;6.40;;;3.90;;
80573;SDS011;69929;52.390;13.078;2023-05-07T08:59:20;5.57;;;3.97;;
80573;SDS011;69929;52.390;13.078;2023-05-07T09:01:45;4.95;;;3.15;;
80573;SDS011;69929;52.390;13.078;2023-05-07T09:04:10;8.18;;;3.45;;
80573;SDS011;69929;52.390;13.078;2023-05-07T09:06:37;4.07;;;2.95;;
80573;SDS011;69929;52.390;13.078;2023-05-07T09:09:06;6.30;;;3.17;;
80573;SDS011;69929;52.390;13.078;2023-05-07T09:11:32;3.85;;;3.03;;
80573;SDS011;69929;52.390;13.078;2023-05-07T09:13:57;5.43;;;2.95;;
80573;SDS011;69929;52.390;13.078;2023-05-07T09:16:26;6.47;;;3.20;;
80573;SDS011;69929;52.390;13.078;2023-05-07T09:18:52;4.28;;;2.97;;
80573;SDS011;69929;52.390;13.078;2023-05-07T09:21:19;5.30;;;3.10;;
80573;SDS011;69929;52.390;13.078;2023-05-07T09:23:47;4.82;;;3.00;;
80573;SDS011;69929;52.390;13.078;2023-05-07T09:26:16;6.30;;;2.95;;
80573;SDS011;69929;52.390;13.078;2023-05-07T09:28:42;7.43;;;2.97;;
80573;SDS011;69929;52.390;13.078;2023-05-07T09:31:08;5.45;;;2.83;;
80573;SDS011;69929;52.390;13.078;2023-05-07T09:33:34;6.00;;;2.75;;
80573;SDS011;69929;52.390;13.078;2023-05-07T09:36:06;3.92;;;2.30;;
80573;SDS011;69929;52.390;13.078;2023-05-07T09:38:33;4.88;;;2.65;;
80573;SDS011;69929;52.390;13.078;2023-05-07T09:41:03;7.15;;;2.65;;
80573;SDS011;69929;52.390;13.078;2023-05-07T09:43:33;3.55;;;2.30;;
80573;SDS011;69929;52.390;13.078;2023-05-07T09:46:03;3.40;;;2.53;;
80573;SDS011;69929;52.390;13.078;2023-05-07T09:48:40;6.07;;;3.13;;
80573;SDS011;69929;52.390;13.078;2023-05-07T09:51:13;5.40;;;3.35;;
80573;SDS011;69929;52.390;13.078;2023-05-07T09:53:47;9.63;;;3.25;;
80573;SDS011;69929;52.390;13.078;2023-05-07T09:56:14;4.65;;;2.42;;
80573;SDS011;69929;52.390;13.078;2023-05-07T09:58:40;3.63;;;3.00;;
80573;SDS011;69929;52.390;13.078;2023-05-07T10:01:06;7.88;;;2.72;;
80573;SDS011;69929;52.390;13.078;2023-05-07T10:03:32;3.35;;;2.40;;
80573;SDS011;69929;52.390;13.078;2023-05-07T10:06:00;3.10;;;2.08;;
80573;SDS011;69929;52.390;13.078;2023-05-07T10:08:26;4.43;;;2.53;;
80573;SDS011;69929;52.390;13.078;2023-05-07T10:10:52;3.95;;;2.55;;
80573;SDS011;69929;52.390;13.078;2023-05-07T10:13:18;4.20;;;2.00;;
80573;SDS011;69929;52.390;13.078;2023-05-07T10:15:44;9.13;;;3.38;;
80573;SDS011;69929;52.390;13.078;2023-05-07T10:18:10;6.70;;;2.13;;
80573;SDS011;69929;52.390;13.078;2023-05-07T10:20:37;3.10;;;2.17;;
80573;SDS011;69929;52.390;13.078;2023-05-07T10:23:04;4.25;;;2.63;;
80573;SDS011;69929;52.390;13.078;2023-05-07T10:25:31;8.05;;;3.95;;
80573;SDS011;69929;52.390;13.078;2023-05-07T10:27:59;4.15;;;2.63;;
80573;SDS011;69929;52.390;13.078;2023-05-07T10:32:59;4.35;;;1.90;;
80573;SDS011;69929;52.390;13.078;2023-05-07T10:35:31;4.18;;;2.85;;
80573;SDS011;69929;52.390;13.078;2023-05-07T10:38:01;7.33;;;2.60;;
80573;SDS011;69929;52.390;13.078;2023-05-07T10:40:27;5.05;;;2.53;;
80573;SDS011;69929;52.390;13.078;2023-05-07T10:42:59;4.15;;;2.20;;
80573;SDS011;69929;52.390;13.078;2023-05-07T10:45:26;5.63;;;2.20;;
80573;SDS011;69929;52.390;13.078;2023-05-07T10:50:41;3.88;;;1.83;;
80573;SDS011;69929;52.390;13.078;2023-05-07T10:55:41;2.38;;;1.75;;
80573;SDS011;69929;52.390;13.078;2023-05-07T11:00:58;2.55;;;1.80;;
80573;SDS011;69929;52.390;13.078;2023-05-07T11:03:25;2.78;;;2.00;;
80573;SDS011;69929;52.390;13.078;2023-05-07T11:15:02;2.58;;;2.17;;
80573;SDS011;69929;52.390;13.078;2023-05-07T11:17:06;2.85;;;1.63;;
80573;SDS011;69929;52.390;13.078;2023-05-07T11:19:48;6.38;;;1.80;;
80573;SDS011;69929;52.390;13.078;2023-05-07T11:24:55;3.05;;;1.88;;
80573;SDS011;69929;52.390;13.078;2023-05-07T11:27:24;3.13;;;1.73;;
80573;SDS011;69929;52.390;13.078;2023-05-07T11:29:50;2.05;;;1.50;;
80573;SDS011;69929;52.390;13.078;2023-05-07T11:32:15;3.45;;;1.60;;
80573;SDS011;69929;52.390;13.078;2023-05-07T11:34:47;2.45;;;1.30;;
80573;SDS011;69929;52.390;13.078;2023-05-07T11:37:17;2.65;;;1.40;;
80573;SDS011;69929;52.390;13.078;2023-05-07T11:39:42;2.75;;;1.63;;
80573;SDS011;69929;52.390;13.078;2023-05-07T11:42:24;7.70;;;1.45;;
80573;SDS011;69929;52.390;13.078;2023-05-07T11:44:53;7.43;;;1.77;;
80573;SDS011;69929;52.390;13.078;2023-05-07T11:47:19;2.83;;;1.60;;
80573;SDS011;69929;52.390;13.078;2023-05-07T11:49:49;2.33;;;1.30;;
80573;SDS011;69929;52.390;13.078;2023-05-07T11:52:16;13.93;;;2.90;;
80573;SDS011;69929;52.390;13.078;2023-05-07T11:54:48;1.88;;;1.50;;
80573;SDS011;69929;52.390;13.078;2023-05-07T11:57:16;2.92;;;1.50;;
80573;SDS011;69929;52.390;13.078;2023-05-07T11:59:42;3.53;;;1.90;;
80573;SDS011;69929;52.390;13.078;2023-05-07T12:02:13;4.47;;;1.83;;
80573;SDS011;69929;52.390;13.078;2023-05-07T12:04:40;6.50;;;2.00;;
80573;SDS011;69929;52.390;13.078;2023-05-07T12:07:10;3.35;;;1.70;;
80573;SDS011;69929;52.390;13.078;2023-05-07T12:09:36;9.13;;;3.78;;
80573;SDS011;69929;52.390;13.078;2023-05-07T12:12:03;6.22;;;2.00;;
80573;SDS011;69929;52.390;13.078;2023-05-07T12:14:29;4.50;;;2.22;;
80573;SDS011;69929;52.390;13.078;2023-05-07T12:16:55;3.28;;;1.85;;
80573;SDS011;69929;52.390;13.078;2023-05-07T12:19:21;12.55;;;3.30;;
80573;SDS011;69929;52.390;13.078;2023-05-07T12:21:47;4.65;;;1.63;;
80573;SDS011;69929;52.390;13.078;2023-05-07T12:24:14;5.85;;;2.72;;
80573;SDS011;69929;52.390;13.078;2023-05-07T12:26:40;2.35;;;1.60;;
80573;SDS011;69929;52.390;13.078;2023-05-07T12:29:06;8.02;;;2.47;;
80573;SDS011;69929;52.390;13.078;2023-05-07T12:31:32;10.32;;;3.35;;
80573;SDS011;69929;52.390;13.078;2023-05-07T12:33:59;20.95;;;5.22;;
80573;SDS011;69929;52.390;13.078;2023-05-07T12:36:25;5.07;;;1.67;;
80573;SDS011;69929;52.390;13.078;2023-05-07T12:38:50;15.85;;;3.22;;
80573;SDS011;69929;52.390;13.078;2023-05-07T12:41:16;3.15;;;2.05;;
80573;SDS011;69929;52.390;13.078;2023-05-07T12:43:43;86.20;;;11.40;;
80573;SDS011;69929;52.390;13.078;2023-05-07T12:46:10;23.77;;;4.70;;
80573;SDS011;69929;52.390;13.078;2023-05-07T12:48:45;10.05;;;6.72;;
80573;SDS011;69929;52.390;13.078;2023-05-07T12:51:11;3.20;;;2.05;;
80573;SDS011;69929;52.390;13.078;2023-05-07T12:53:40;9.73;;;4.13;;
80573;SDS011;69929;52.390;13.078;2023-05-07T12:56:09;2.25;;;1.67;;
80573;SDS011;69929;52.390;13.078;2023-05-07T12:58:35;12.57;;;2.15;;
80573;SDS011;69929;52.390;13.078;2023-05-07T13:01:05;8.75;;;2.97;;
80573;SDS011;69929;52.390;13.078;2023-05-07T13:03:33;2.97;;;1.85;;
80573;SDS011;69929;52.390;13.078;2023-05-07T13:06:01;7.90;;;2.50;;
80573;SDS011;69929;52.390;13.078;2023-05-07T13:08:32;3.28;;;2.15;;
80573;SDS011;69929;52.390;13.078;2023-05-07T13:11:00;10.00;;;2.63;;
80573;SDS011;69929;52.390;13.078;2023-05-07T13:13:33;2.63;;;1.40;;
80573;SDS011;69929;52.390;13.078;2023-05-07T13:16:00;9.32;;;2.33;;
80573;SDS011;69929;52.390;13.078;2023-05-07T13:18:28;3.17;;;1.80;;
80573;SDS011;69929;52.390;13.078;2023-05-07T13:20:55;7.40;;;2.97;;
80573;SDS011;69929;52.390;13.078;2023-05-07T13:23:20;8.10;;;2.25;;
80573;SDS011;69929;52.390;13.078;2023-05-07T13:25:46;9.93;;;1.98;;
80573;SDS011;69929;52.390;13.078;2023-05-07T13:28:11;5.40;;;2.15;;
80573;SDS011;69929;52.390;13.078;2023-05-07T13:30:37;4.30;;;1.98;;
80573;SDS011;69929;52.390;13.078;2023-05-07T13:33:03;13.45;;;3.20;;
80573;SDS011;69929;52.390;13.078;2023-05-07T13:35:29;10.10;;;3.22;;
80573;SDS011;69929;52.390;13.078;2023-05-07T13:37:55;6.10;;;2.38;;
80573;SDS011;69929;52.390;13.078;2023-05-07T13:40:21;7.60;;;1.85;;
80573;SDS011;69929;52.390;13.078;2023-05-07T13:42:47;3.38;;;1.52;;
80573;SDS011;69929;52.390;13.078;2023-05-07T13:45:13;3.25;;;1.42;;
80573;SDS011;69929;52.390;13.078;2023-05-07T13:47:40;2.00;;;1.50;;
80573;SDS011;69929;52.390;13.078;2023-05-07T13:50:06;2.75;;;1.30;;
80573;SDS011;69929;52.390;13.078;2023-05-07T13:52:33;8.95;;;5.88;;
80573;SDS011;69929;52.390;13.078;2023-05-07T13:54:58;8.73;;;1.98;;
80573;SDS011;69929;52.390;13.078;2023-05-07T13:57:24;12.73;;;2.17;;
80573;SDS011;69929;52.390;13.078;2023-05-07T13:59:49;2.63;;;1.63;;
80573;SDS011;69929;52.390;13.078;2023-05-07T14:02:15;6.40;;;2.72;;
80573;SDS011;69929;52.390;13.078;2023-05-07T14:04:40;2.28;;;1.20;;
80573;SDS011;69929;52.390;13.078;2023-05-07T14:07:06;2.13;;;1.27;;
80573;SDS011;69929;52.390;13.078;2023-05-07T14:09:31;5.65;;;1.25;;
80573;SDS011;69929;52.390;13.078;2023-05-07T14:11:57;2.35;;;1.15;;
80573;SDS011;69929;52.390;13.078;2023-05-07T14:14:23;1.75;;;1.02;;
80573;SDS011;69929;52.390;13.078;2023-05-07T14:16:49;2.60;;;1.20;;
80573;SDS011;69929;52.390;13.078;2023-05-07T14:19:14;6.03;;;1.73;;
80573;SDS011;69929;52.390;13.078;2023-05-07T14:21:40;5.95;;;1.40;;
80573;SDS011;69929;52.390;13.078;2023-05-07T14:24:06;2.78;;;1.70;;
80573;SDS011;69929;52.390;13.078;2023-05-07T14:26:33;4.60;;;1.40;;
80573;SDS011;69929;52.390;13.078;2023-05-07T14:28:59;9.32;;;1.90;;
80573;SDS011;69929;52.390;13.078;2023-05-07T14:31:24;16.55;;;2.95;;
80573;SDS011;69929;52.390;13.078;2023-05-07T14:33:50;3.08;;;1.48;;
80573;SDS011;69929;52.390;13.078;2023-05-07T14:36:17;4.65;;;1.80;;
80573;SDS011;69929;52.390;13.078;2023-05-07T14:38:45;5.32;;;2.28;;
80573;SDS011;69929;52.390;13.078;2023-05-07T14:41:11;47.72;;;6.93;;
80573;SDS011;69929;52.390;13.078;2023-05-07T14:43:36;3.78;;;1.75;;